Time;durP1;ratioP1;P1;durP2;ratioP2;P2;SDS_P1;SDS_P2;PMS_P1;PMS_P2;Temp;Humidity;BMP_temperature;BMP_pressure;BME280_temperature;BME280_humidity;BME280_pressure;Samples;Min_cycle;Max_cycle;Signal;HPM_P1;HPM_P2
2021/05/27 00:02:01;;;;;;;17.23;6.43;;;10.70;99.90;;;;;;5057637;28;20077;-79
2021/05/27 00:04:27;;;;;;;13.88;6.20;;;10.70;99.90;;;;;;5085111;28;20044;-78
2021/05/27 00:06:53;;;;;;;12.20;4.97;;;10.60;99.90;;;;;;5056691;28;20474;-78
2021/05/27 00:09:18;;;;;;;13.82;5.43;;;10.70;99.90;;;;;;5053898;28;20036;-79
2021/05/27 00:11:44;;;;;;;12.00;5.43;;;10.70;99.90;;;;;;5056711;28;20052;-79
2021/05/27 00:14:10;;;;;;;14.52;5.80;;;10.70;99.90;;;;;;5056627;28;20032;-79
2021/05/27 00:16:35;;;;;;;16.55;6.20;;;10.70;99.90;;;;;;5057176;28;20028;-78
2021/05/27 00:19:01;;;;;;;13.35;4.93;;;10.70;99.90;;;;;;5054374;28;20167;-77
2021/05/27 00:21:27;;;;;;;13.68;4.63;;;10.60;99.90;;;;;;5055980;28;20383;-79
2021/05/27 00:23:52;;;;;;;10.13;5.03;;;10.70;99.90;;;;;;5054748;28;20044;-78
2021/05/27 00:26:18;;;;;;;14.63;4.63;;;10.60;99.90;;;;;;5056456;28;21583;-78
2021/05/27 00:28:44;;;;;;;15.82;4.70;;;10.60;99.90;;;;;;5088860;28;20542;-77
2021/05/27 00:31:10;;;;;;;13.48;5.07;;;10.60;99.90;;;;;;5059716;28;20051;-78
2021/05/27 00:33:36;;;;;;;12.75;4.55;;;10.60;99.90;;;;;;5058044;28;20043;-78
2021/05/27 00:36:02;;;;;;;9.80;4.93;;;10.60;99.90;;;;;;5060202;28;20033;-79
2021/05/27 00:38:28;;;;;;;10.60;5.00;;;10.60;99.90;;;;;;5061198;28;20124;-77
2021/05/27 00:40:54;;;;;;;9.00;4.85;;;10.60;99.90;;;;;;5057918;28;22319;-78
2021/05/27 00:43:20;;;;;;;11.77;4.57;;;10.60;99.90;;;;;;5056581;28;20047;-77
2021/05/27 00:45:46;;;;;;;11.52;4.90;;;10.60;99.90;;;;;;5060138;28;20433;-77
2021/05/27 00:48:56;;;;;;;12.20;4.50;;;10.60;99.90;;;;;;5059174;28;20033;-77
2021/05/27 00:50:58;;;;;;;11.20;4.75;;;10.60;99.90;;;;;;5058259;28;20068;-78
2021/05/27 00:53:25;;;;;;;14.30;5.20;;;10.60;99.90;;;;;;5060738;28;20060;-78
2021/05/27 00:55:51;;;;;;;13.63;5.55;;;10.50;99.90;;;;;;5058824;28;20033;-78
2021/05/27 00:58:18;;;;;;;13.98;4.95;;;10.60;99.90;;;;;;5061745;28;20110;-78
2021/05/27 01:00:44;;;;;;;12.75;4.55;;;10.60;99.90;;;;;;5058104;28;20045;-78
2021/05/27 01:03:10;;;;;;;14.40;6.10;;;10.60;99.90;;;;;;5056724;28;20429;-79
2021/05/27 01:05:36;;;;;;;15.18;5.28;;;10.60;99.90;;;;;;5059353;28;20125;-79
2021/05/27 01:08:02;;;;;;;13.68;5.85;;;10.70;99.90;;;;;;5055422;28;20451;-78
2021/05/27 01:10:27;;;;;;;12.52;4.95;;;10.70;99.90;;;;;;5057268;28;20107;-78
2021/05/27 01:12:53;;;;;;;16.33;5.00;;;10.60;99.90;;;;;;5057922;28;20504;-79
2021/05/27 01:15:27;;;;;;;9.27;5.28;;;10.60;99.90;;;;;;5059679;28;20116;-78
2021/05/27 01:17:54;;;;;;;15.48;5.78;;;10.60;99.90;;;;;;5059136;28;20047;-78
2021/05/27 01:20:19;;;;;;;11.98;5.65;;;10.60;99.90;;;;;;5059763;28;20051;-78
2021/05/27 01:22:45;;;;;;;17.83;5.45;;;10.60;99.90;;;;;;5057984;28;20028;-78
2021/05/27 01:25:12;;;;;;;13.02;5.53;;;10.70;99.90;;;;;;5058740;28;20474;-78
2021/05/27 01:27:39;;;;;;;12.00;4.88;;;10.60;99.90;;;;;;5057677;28;20075;-78
2021/05/27 01:30:08;;;;;;;10.30;5.20;;;10.60;99.90;;;;;;5059451;28;20062;-78
2021/05/27 01:32:34;;;;;;;12.18;5.22;;;10.60;99.90;;;;;;5090268;28;20040;-78
2021/05/27 01:35:01;;;;;;;11.65;5.88;;;10.60;99.90;;;;;;5056180;28;20044;-78
2021/05/27 01:37:26;;;;;;;12.32;5.72;;;10.70;99.90;;;;;;5063626;28;20478;-78
2021/05/27 01:39:52;;;;;;;12.82;4.88;;;10.60;99.90;;;;;;5059961;28;20043;-78
2021/05/27 01:42:18;;;;;;;13.30;5.28;;;10.60;99.90;;;;;;5065591;28;20033;-78
2021/05/27 01:44:44;;;;;;;14.25;5.70;;;10.60;99.90;;;;;;5062627;28;20494;-78
2021/05/27 01:47:10;;;;;;;8.93;5.72;;;10.60;99.90;;;;;;5062394;28;20036;-78
2021/05/27 01:49:41;;;;;;;12.73;5.32;;;10.60;99.90;;;;;;5061479;28;20449;-78
2021/05/27 01:52:07;;;;;;;11.82;5.18;;;10.60;99.90;;;;;;5060728;28;20040;-77
2021/05/27 01:54:33;;;;;;;9.60;4.45;;;10.60;99.90;;;;;;5062517;28;20037;-78
2021/05/27 01:56:59;;;;;;;10.52;4.40;;;10.70;99.90;;;;;;5060945;28;20128;-78
2021/05/27 01:59:25;;;;;;;9.88;4.53;;;10.60;99.90;;;;;;5062728;28;20040;-78
2021/05/27 02:01:51;;;;;;;11.10;5.13;;;10.60;99.90;;;;;;5058855;28;20036;-78
2021/05/27 02:04:17;;;;;;;14.18;4.40;;;10.60;99.90;;;;;;5058377;28;20127;-78
2021/05/27 02:06:43;;;;;;;9.85;4.75;;;10.60;99.90;;;;;;5060026;28;20123;-78
2021/05/27 02:09:11;;;;;;;10.25;5.07;;;10.60;99.90;;;;;;5060266;28;20029;-78
2021/05/27 02:11:43;;;;;;;9.10;4.88;;;10.60;99.90;;;;;;5061421;28;20051;-78
2021/05/27 02:14:11;;;;;;;11.25;5.97;;;10.60;99.90;;;;;;5058529;28;20044;-78
2021/05/27 02:16:39;;;;;;;11.45;5.30;;;10.70;99.90;;;;;;5061526;28;20617;-78
2021/05/27 02:19:05;;;;;;;11.88;5.32;;;10.60;99.90;;;;;;5061998;28;20028;-78
2021/05/27 02:21:31;;;;;;;14.05;5.18;;;10.60;99.90;;;;;;5060888;28;20040;-78
2021/05/27 02:23:59;;;;;;;9.80;4.80;;;10.60;99.90;;;;;;5060689;28;20033;-78
2021/05/27 02:26:26;;;;;;;15.18;5.40;;;10.60;99.90;;;;;;5057063;28;20502;-78
2021/05/27 02:28:52;;;;;;;12.75;4.85;;;10.60;99.90;;;;;;5061140;28;20036;-77
2021/05/27 02:31:19;;;;;;;13.63;5.25;;;10.60;99.90;;;;;;5060551;28;20102;-78
2021/05/27 02:33:46;;;;;;;9.40;4.60;;;10.60;99.90;;;;;;5059212;28;20487;-77
2021/05/27 02:36:12;;;;;;;11.85;4.32;;;10.60;99.90;;;;;;5059872;28;20087;-77
2021/05/27 02:38:38;;;;;;;6.97;4.65;;;10.50;99.90;;;;;;5059578;28;20041;-78
2021/05/27 02:41:05;;;;;;;12.80;4.80;;;10.60;99.90;;;;;;5060875;28;20097;-77
2021/05/27 02:43:33;;;;;;;10.80;4.03;;;10.60;99.90;;;;;;5059667;28;20044;-78
2021/05/27 02:46:00;;;;;;;14.93;4.95;;;10.60;99.90;;;;;;5057027;28;20108;-77
2021/05/27 02:48:26;;;;;;;10.98;5.30;;;10.70;99.90;;;;;;5058685;28;20045;-77
2021/05/27 02:50:51;;;;;;;14.15;5.25;;;10.60;99.90;;;;;;5060723;28;20051;-77
2021/05/27 02:53:32;;;;;;;13.32;4.10;;;10.50;99.90;;;;;;5058976;28;20491;-77
2021/05/27 02:55:59;;;;;;;13.23;5.22;;;10.60;99.90;;;;;;5058633;28;20060;-77
2021/05/27 02:58:25;;;;;;;9.10;4.45;;;10.60;99.90;;;;;;5058456;28;20113;-77
2021/05/27 03:00:51;;;;;;;7.72;4.00;;;10.60;99.90;;;;;;5062855;28;20040;-78
2021/05/27 03:03:21;;;;;;;10.40;4.05;;;10.60;99.90;;;;;;5060193;28;20055;-78
2021/05/27 03:05:48;;;;;;;10.00;3.85;;;10.60;99.90;;;;;;5055040;28;20119;-77
2021/05/27 03:08:14;;;;;;;10.60;4.05;;;10.60;99.90;;;;;;5057925;28;20037;-78
2021/05/27 03:10:41;;;;;;;6.35;3.30;;;10.60;99.90;;;;;;5054728;28;20047;-77
2021/05/27 03:13:07;;;;;;;9.32;3.50;;;10.50;99.90;;;;;;5056304;28;20025;-77
2021/05/27 03:15:34;;;;;;;10.93;3.28;;;10.50;99.90;;;;;;5053452;28;20033;-77
2021/05/27 03:18:07;;;;;;;5.85;2.65;;;10.50;99.90;;;;;;5056665;28;20083;-77
2021/05/27 03:20:34;;;;;;;8.23;3.45;;;10.50;99.90;;;;;;5056806;28;20414;-77
2021/05/27 03:23:00;;;;;;;7.97;2.70;;;10.60;99.90;;;;;;5055331;28;20037;-77
2021/05/27 03:25:26;;;;;;;8.63;3.03;;;10.50;99.90;;;;;;5085046;28;20036;-77
2021/05/27 03:27:52;;;;;;;5.95;2.72;;;10.50;99.90;;;;;;5055404;28;20067;-77
2021/05/27 03:30:18;;;;;;;6.28;2.95;;;10.50;99.90;;;;;;5057764;28;20526;-77
2021/05/27 03:32:44;;;;;;;8.18;3.58;;;10.50;99.90;;;;;;5057827;28;20052;-76
2021/05/27 03:35:11;;;;;;;4.95;2.05;;;10.50;99.90;;;;;;5057519;28;20517;-77
2021/05/27 03:37:37;;;;;;;10.38;2.85;;;10.50;99.90;;;;;;5056860;28;20158;-77
2021/05/27 03:40:11;;;;;;;9.05;2.70;;;10.60;99.90;;;;;;5056957;28;20463;-77
2021/05/27 03:42:51;;;;;;;6.82;3.17;;;10.50;99.90;;;;;;5056898;28;20125;-76
2021/05/27 03:45:20;;;;;;;6.53;2.60;;;10.60;99.90;;;;;;5055820;28;20043;-77
2021/05/27 03:47:46;;;;;;;5.82;2.70;;;10.50;99.90;;;;;;5056489;28;20539;-76
2021/05/27 03:50:17;;;;;;;4.97;2.55;;;10.50;99.90;;;;;;5055936;28;20036;-76
2021/05/27 03:52:43;;;;;;;4.15;2.25;;;10.50;99.90;;;;;;5056163;28;20051;-77
2021/05/27 03:55:11;;;;;;;9.35;2.70;;;10.60;99.90;;;;;;5055153;28;20398;-76
2021/05/27 03:57:37;;;;;;;4.97;2.78;;;10.50;99.90;;;;;;5055648;28;20563;-76
2021/05/27 04:02:51;;;;;;;6.63;2.40;;;10.50;99.90;;;;;;5053744;28;20036;-77
2021/05/27 04:08:14;;;;;;;7.38;2.55;;;10.50;99.90;;;;;;5051986;28;20509;-77
2021/05/27 04:10:40;;;;;;;6.88;2.85;;;10.50;99.90;;;;;;5055364;28;20089;-77
2021/05/27 04:13:06;;;;;;;8.18;2.40;;;10.40;99.90;;;;;;5057479;28;21131;-76
2021/05/27 04:15:34;;;;;;;8.52;2.55;;;10.40;99.90;;;;;;5058066;28;20032;-77
2021/05/27 04:18:17;;;;;;;7.57;2.80;;;10.50;99.90;;;;;;5054530;28;20067;-77
2021/05/27 04:20:55;;;;;;;6.63;3.03;;;10.50;99.90;;;;;;5055017;28;20069;-77
2021/05/27 04:23:38;;;;;;;5.75;2.80;;;10.40;99.90;;;;;;5056220;28;20117;-77
2021/05/27 04:26:06;;;;;;;5.10;2.70;;;10.40;99.90;;;;;;5056074;28;20041;-77
2021/05/27 04:28:32;;;;;;;6.22;3.28;;;10.40;99.90;;;;;;5058642;28;20032;-76
2021/05/27 04:31:09;;;;;;;9.20;3.65;;;10.40;99.90;;;;;;5054310;28;20728;-77
2021/05/27 04:33:58;;;;;;;9.88;3.63;;;10.40;99.90;;;;;;5061211;28;20056;-77
2021/05/27 04:36:24;;;;;;;8.73;2.88;;;10.40;99.90;;;;;;5060288;28;20049;-77
2021/05/27 04:38:51;;;;;;;10.40;4.18;;;10.40;99.90;;;;;;5061975;28;20068;-76
2021/05/27 04:41:17;;;;;;;9.45;3.72;;;10.40;99.90;;;;;;5062981;28;20360;-76
2021/05/27 04:43:46;;;;;;;6.63;2.63;;;10.40;99.90;;;;;;5059674;28;20080;-76
2021/05/27 04:46:12;;;;;;;5.25;2.92;;;10.50;99.90;;;;;;5057724;28;20040;-78
2021/05/27 04:48:37;;;;;;;9.52;3.35;;;10.50;99.90;;;;;;5052694;28;20060;-77
2021/05/27 04:51:04;;;;;;;4.95;2.70;;;10.50;99.90;;;;;;5060615;28;20040;-77
2021/05/27 04:53:29;;;;;;;8.20;3.25;;;10.50;99.90;;;;;;5056951;28;20498;-77
2021/05/27 04:55:56;;;;;;;5.35;2.80;;;10.60;99.90;;;;;;5056273;28;20041;-78
2021/05/27 04:58:24;;;;;;;10.63;3.70;;;10.60;99.90;;;;;;5055830;28;20056;-76
2021/05/27 05:00:50;;;;;;;12.40;3.20;;;10.50;99.90;;;;;;5061630;28;20399;-77
2021/05/27 05:03:17;;;;;;;12.00;2.80;;;10.50;99.90;;;;;;5056512;28;20049;-76
2021/05/27 05:05:43;;;;;;;9.35;3.03;;;10.50;99.90;;;;;;5056230;28;20440;-76
2021/05/27 05:08:09;;;;;;;10.88;2.80;;;10.60;99.90;;;;;;5062485;28;20103;-77
2021/05/27 05:10:35;;;;;;;14.02;4.00;;;10.50;99.90;;;;;;5062809;28;20066;-76
2021/05/27 05:13:01;;;;;;;7.18;2.53;;;10.50;99.90;;;;;;5063727;28;20055;-77
2021/05/27 05:15:27;;;;;;;6.85;2.55;;;10.50;99.90;;;;;;5066870;28;20045;-77
2021/05/27 05:17:55;;;;;;;7.65;3.08;;;10.50;99.90;;;;;;5064341;28;20041;-77
2021/05/27 05:20:27;;;;;;;9.98;2.80;;;10.50;99.90;;;;;;5065616;28;20110;-77
2021/05/27 05:22:53;;;;;;;7.75;2.60;;;10.60;99.90;;;;;;5062907;28;20414;-77
2021/05/27 05:25:20;;;;;;;7.32;2.38;;;10.60;99.90;;;;;;5065079;28;20727;-77
2021/05/27 05:27:47;;;;;;;12.20;4.10;;;10.70;99.90;;;;;;5062571;28;20649;-77
2021/05/27 05:30:15;;;;;;;6.97;3.22;;;10.60;99.90;;;;;;5069356;28;20683;-77
2021/05/27 05:32:42;;;;;;;7.97;2.75;;;10.60;99.90;;;;;;5067657;28;20044;-77
2021/05/27 05:35:10;;;;;;;9.43;3.53;;;10.60;99.90;;;;;;5066460;28;20501;-77
2021/05/27 05:37:37;;;;;;;4.45;2.65;;;10.50;99.90;;;;;;5068303;28;20078;-78
2021/05/27 05:40:04;;;;;;;13.00;3.03;;;10.60;99.90;;;;;;5062034;28;20036;-78
2021/05/27 05:42:30;;;;;;;10.18;3.05;;;10.60;99.90;;;;;;5061126;28;20045;-79
2021/05/27 05:44:56;;;;;;;6.90;3.90;;;10.60;99.90;;;;;;5066125;28;20501;-79
2021/05/27 05:47:22;;;;;;;7.47;2.58;;;10.60;99.90;;;;;;5066669;28;20044;-78
2021/05/27 05:49:47;;;;;;;6.60;3.70;;;10.60;99.90;;;;;;5065541;28;20045;-78
2021/05/27 05:52:14;;;;;;;7.15;2.75;;;10.60;99.90;;;;;;5064337;28;20037;-79
2021/05/27 05:54:40;;;;;;;10.38;3.17;;;10.60;99.90;;;;;;5067033;28;20113;-78
2021/05/27 05:57:06;;;;;;;8.48;3.00;;;10.60;99.90;;;;;;5068359;28;20498;-78
2021/05/27 05:59:32;;;;;;;11.65;3.53;;;10.60;99.90;;;;;;5075184;28;20067;-78
2021/05/27 06:01:58;;;;;;;7.57;3.58;;;10.60;99.90;;;;;;5064079;28;20546;-78
2021/05/27 06:04:23;;;;;;;13.10;3.75;;;10.60;99.90;;;;;;5066759;28;20032;-79
2021/05/27 06:06:51;;;;;;;14.25;3.90;;;10.60;99.90;;;;;;5069173;28;20040;-81
2021/05/27 06:09:25;;;;;;;14.57;3.40;;;10.60;99.90;;;;;;5071509;28;20045;-78
2021/05/27 06:11:52;;;;;;;12.60;4.20;;;10.60;99.90;;;;;;5062006;28;20048;-78
2021/05/27 06:14:18;;;;;;;10.95;3.38;;;10.60;99.90;;;;;;5062435;28;20040;-78
2021/05/27 06:16:44;;;;;;;12.95;4.10;;;10.70;99.90;;;;;;5056636;28;20041;-78
2021/05/27 06:19:10;;;;;;;8.45;4.00;;;10.80;99.90;;;;;;5057769;28;20037;-78
2021/05/27 06:21:36;;;;;;;17.38;4.28;;;10.70;99.90;;;;;;5053974;28;20068;-77
2021/05/27 06:24:01;;;;;;;13.20;3.80;;;10.60;99.90;;;;;;5055254;28;20067;-77
2021/05/27 06:26:27;;;;;;;12.77;4.40;;;10.70;99.90;;;;;;5058847;28;20777;-79
2021/05/27 06:28:53;;;;;;;17.35;4.05;;;10.60;99.90;;;;;;5053620;28;20040;-77
2021/05/27 06:31:19;;;;;;;14.68;4.70;;;10.70;99.90;;;;;;5054079;28;20032;-77
2021/05/27 06:33:45;;;;;;;15.35;4.50;;;10.70;99.90;;;;;;5061994;28;20056;-77
2021/05/27 06:36:11;;;;;;;18.42;4.82;;;10.70;99.90;;;;;;5064075;28;20040;-77
2021/05/27 06:38:37;;;;;;;13.10;4.22;;;10.70;99.90;;;;;;5054372;28;20538;-78
2021/05/27 06:41:03;;;;;;;10.85;4.40;;;10.80;99.90;;;;;;5054985;28;20040;-79
2021/05/27 06:43:29;;;;;;;10.02;4.25;;;10.80;99.90;;;;;;5054806;28;20483;-78
2021/05/27 06:45:56;;;;;;;13.65;4.40;;;10.80;99.90;;;;;;5053765;28;20041;-77
2021/05/27 06:48:23;;;;;;;16.65;4.40;;;10.80;99.90;;;;;;5054914;28;20161;-78
2021/05/27 06:50:49;;;;;;;18.50;5.38;;;10.80;99.90;;;;;;5056105;28;20044;-77
2021/05/27 06:53:15;;;;;;;15.25;4.63;;;10.80;99.90;;;;;;5052245;28;20079;-77
2021/05/27 06:55:43;;;;;;;15.15;4.95;;;10.70;99.90;;;;;;5061627;28;20033;-77
2021/05/27 06:58:10;;;;;;;12.02;4.63;;;10.80;99.90;;;;;;5059330;28;20044;-77
2021/05/27 07:00:37;;;;;;;15.68;5.07;;;10.80;99.90;;;;;;5054159;28;20048;-77
2021/05/27 07:03:04;;;;;;;13.32;4.65;;;10.80;99.90;;;;;;5056557;28;20041;-77
2021/05/27 07:05:31;;;;;;;13.32;4.72;;;10.90;99.90;;;;;;5054510;28;20137;-77
2021/05/27 07:07:59;;;;;;;14.77;5.63;;;10.80;99.90;;;;;;5052693;28;20110;-77
2021/05/27 07:10:25;;;;;;;14.88;5.88;;;10.80;99.90;;;;;;5055423;28;20068;-76
2021/05/27 07:12:54;;;;;;;16.08;5.03;;;10.80;99.90;;;;;;5051455;28;20041;-76
2021/05/27 07:15:21;;;;;;;11.95;4.00;;;10.90;99.90;;;;;;5053299;28;20041;-76
2021/05/27 07:17:51;;;;;;;12.50;4.97;;;10.80;99.90;;;;;;5052570;28;20135;-76
2021/05/27 07:20:18;;;;;;;17.15;5.13;;;10.90;99.90;;;;;;5056592;28;20028;-77
2021/05/27 07:22:44;;;;;;;12.98;5.47;;;10.90;99.90;;;;;;5051469;28;20041;-77
2021/05/27 07:25:12;;;;;;;15.25;5.38;;;10.90;99.90;;;;;;5052598;28;20630;-76
2021/05/27 07:27:38;;;;;;;10.05;4.80;;;11.00;99.90;;;;;;5083761;28;20094;-76
2021/05/27 07:30:06;;;;;;;10.00;4.35;;;11.00;99.90;;;;;;5054517;28;20037;-76
2021/05/27 07:32:32;;;;;;;19.42;5.65;;;11.10;99.90;;;;;;5054456;28;20048;-78
2021/05/27 07:34:58;;;;;;;14.65;4.28;;;11.20;99.90;;;;;;5055347;28;20048;-76
2021/05/27 07:37:24;;;;;;;10.85;4.30;;;11.20;99.90;;;;;;5054111;28;20045;-76
2021/05/27 07:39:50;;;;;;;12.35;5.25;;;11.20;99.90;;;;;;5054022;28;20090;-77
2021/05/27 07:42:17;;;;;;;13.10;4.53;;;11.20;99.90;;;;;;5053792;28;20151;-77
2021/05/27 07:44:43;;;;;;;10.55;4.00;;;11.20;99.90;;;;;;5054031;28;20046;-77
2021/05/27 07:47:08;;;;;;;8.98;3.92;;;11.20;99.90;;;;;;5055205;28;20115;-77
2021/05/27 07:49:34;;;;;;;13.05;4.55;;;11.30;99.90;;;;;;5054847;28;20550;-77
2021/05/27 07:52:00;;;;;;;12.85;4.63;;;11.30;99.90;;;;;;5051469;28;20120;-77
2021/05/27 07:54:27;;;;;;;10.40;4.35;;;11.30;99.90;;;;;;5049937;28;20116;-76
2021/05/27 07:56:53;;;;;;;14.88;3.95;;;11.30;99.90;;;;;;5055195;28;20130;-77
2021/05/27 07:59:19;;;;;;;10.35;3.75;;;11.30;99.90;;;;;;5051959;28;20037;-77
2021/05/27 08:01:45;;;;;;;11.25;4.60;;;11.30;99.90;;;;;;5050844;28;20052;-77
2021/05/27 08:04:11;;;;;;;10.05;4.18;;;11.40;99.90;;;;;;5055381;28;20029;-77
2021/05/27 08:06:37;;;;;;;8.60;3.70;;;11.40;99.90;;;;;;5049739;28;20411;-77
2021/05/27 08:09:07;;;;;;;10.43;4.05;;;11.40;99.90;;;;;;5054441;28;20465;-77
2021/05/27 08:11:36;;;;;;;9.68;4.75;;;11.50;99.90;;;;;;5054607;28;20119;-76
2021/05/27 08:14:02;;;;;;;9.02;4.10;;;11.50;99.90;;;;;;5052013;28;20040;-77
2021/05/27 08:16:28;;;;;;;11.32;3.75;;;11.50;99.90;;;;;;5052240;28;20041;-76
2021/05/27 08:18:54;;;;;;;11.32;4.25;;;11.50;99.90;;;;;;5052661;28;20039;-77
2021/05/27 08:21:19;;;;;;;9.65;3.80;;;11.60;99.90;;;;;;5055395;28;20372;-76
2021/05/27 08:23:50;;;;;;;31.48;4.80;;;11.60;99.90;;;;;;5053358;28;20848;-76
2021/05/27 08:26:16;;;;;;;9.35;3.72;;;11.50;99.90;;;;;;5054331;28;20070;-76
2021/05/27 08:28:42;;;;;;;12.48;3.95;;;11.60;99.90;;;;;;5053760;28;20479;-77
2021/05/27 08:31:08;;;;;;;11.75;5.72;;;11.60;99.90;;;;;;5053423;28;20140;-77
2021/05/27 08:33:33;;;;;;;10.55;3.55;;;11.70;99.90;;;;;;5052893;28;20054;-77
2021/05/27 08:35:59;;;;;;;7.95;3.78;;;11.60;99.90;;;;;;5052463;28;20805;-77
2021/05/27 08:38:25;;;;;;;10.07;3.00;;;11.60;99.90;;;;;;5050688;28;20063;-78
2021/05/27 08:40:54;;;;;;;11.85;3.28;;;11.70;99.90;;;;;;5054631;28;20399;-78
2021/05/27 08:43:21;;;;;;;9.85;3.33;;;11.80;99.90;;;;;;5055265;28;20450;-78
2021/05/27 08:45:48;;;;;;;10.52;3.08;;;11.90;99.90;;;;;;5053108;28;20060;-79
2021/05/27 08:48:18;;;;;;;10.65;3.15;;;12.10;99.90;;;;;;5058190;28;20037;-80
2021/05/27 08:50:46;;;;;;;14.63;3.08;;;12.20;99.90;;;;;;5058498;28;20036;-80
2021/05/27 08:53:17;;;;;;;10.75;2.75;;;12.50;99.90;;;;;;5056102;28;20087;-79
2021/05/27 08:55:44;;;;;;;8.15;3.20;;;12.60;99.90;;;;;;5056972;28;20111;-77
2021/05/27 08:58:10;;;;;;;11.82;2.60;;;12.80;99.90;;;;;;5059857;28;20037;-81
2021/05/27 09:00:37;;;;;;;8.10;1.88;;;12.80;99.90;;;;;;5058300;28;20080;-79
2021/05/27 09:03:05;;;;;;;8.27;2.15;;;13.00;99.90;;;;;;5060012;28;20052;-80
2021/05/27 09:05:35;;;;;;;8.38;2.30;;;13.00;99.90;;;;;;5058183;28;20045;-79
2021/05/27 09:08:01;;;;;;;11.18;2.83;;;13.10;99.90;;;;;;5059297;28;20037;-79
2021/05/27 09:10:47;;;;;;;5.20;1.80;;;13.10;99.90;;;;;;5056066;28;20045;-79
2021/05/27 09:13:18;;;;;;;8.75;2.25;;;13.10;99.90;;;;;;5054570;28;20131;-79
2021/05/27 09:15:45;;;;;;;9.30;2.47;;;13.10;99.90;;;;;;5056281;28;20150;-80
2021/05/27 09:18:11;;;;;;;7.57;1.92;;;13.10;99.90;;;;;;5055980;28;20028;-79
2021/05/27 09:20:38;;;;;;;8.23;2.15;;;13.20;99.90;;;;;;5057373;28;20037;-80
2021/05/27 09:23:09;;;;;;;12.88;2.88;;;13.20;99.90;;;;;;5053638;28;20076;-79
2021/05/27 09:25:37;;;;;;;8.75;2.05;;;13.40;99.90;;;;;;5057551;28;20037;-79
2021/05/27 09:28:07;;;;;;;11.20;2.47;;;13.50;99.90;;;;;;5061614;28;20774;-79
2021/05/27 09:30:48;;;;;;;9.88;2.25;;;13.50;99.90;;;;;;5054137;28;20779;-78
2021/05/27 09:33:15;;;;;;;12.30;2.65;;;13.40;99.90;;;;;;5058409;28;20425;-79
2021/05/27 09:35:41;;;;;;;12.07;2.35;;;13.50;99.90;;;;;;5056531;28;20461;-79
2021/05/27 09:38:08;;;;;;;9.80;2.33;;;13.50;99.90;;;;;;5056940;28;20040;-81
2021/05/27 09:40:38;;;;;;;10.45;2.72;;;13.60;99.90;;;;;;5057779;28;21663;-80
2021/05/27 09:43:07;;;;;;;9.65;2.03;;;13.80;99.90;;;;;;5056310;28;20036;-80
2021/05/27 09:45:35;;;;;;;7.88;2.22;;;14.00;99.90;;;;;;5055887;28;20032;-80
2021/05/27 09:48:24;;;;;;;9.45;2.05;;;14.10;99.90;;;;;;5056718;28;20079;-80
2021/05/27 09:50:54;;;;;;;7.97;2.13;;;14.10;99.90;;;;;;5053903;28;20040;-79
2021/05/27 09:53:22;;;;;;;6.65;1.70;;;14.00;99.90;;;;;;5055985;28;20079;-80
2021/05/27 09:55:49;;;;;;;10.63;2.50;;;13.70;99.90;;;;;;5054811;28;20036;-79
2021/05/27 09:58:16;;;;;;;12.48;2.40;;;13.70;99.90;;;;;;5056140;28;20047;-79
2021/05/27 10:00:44;;;;;;;9.77;1.95;;;13.50;99.90;;;;;;5057339;28;20033;-80
2021/05/27 10:03:27;;;;;;;9.50;2.20;;;13.50;99.90;;;;;;5056657;28;20052;-79
2021/05/27 10:05:54;;;;;;;8.57;1.65;;;13.40;99.90;;;;;;5053473;28;20044;-79
2021/05/27 10:08:21;;;;;;;10.98;1.88;;;13.40;99.90;;;;;;5055359;28;20075;-79
2021/05/27 10:10:51;;;;;;;10.20;2.33;;;13.40;99.90;;;;;;5051843;28;20048;-79
2021/05/27 10:13:22;;;;;;;13.65;2.17;;;13.40;99.90;;;;;;5053941;28;20040;-80
2021/05/27 10:15:57;;;;;;;9.52;2.60;;;13.40;99.90;;;;;;5057450;28;20497;-79
2021/05/27 10:18:23;;;;;;;11.02;2.53;;;13.30;99.90;;;;;;5055605;28;20513;-80
2021/05/27 10:20:50;;;;;;;15.00;2.25;;;13.20;99.90;;;;;;5056591;28;20061;-80
2021/05/27 10:23:16;;;;;;;12.77;2.22;;;13.20;99.90;;;;;;5060173;28;20045;-80
2021/05/27 10:25:45;;;;;;;10.13;1.73;;;13.20;99.90;;;;;;5058442;28;20037;-80
2021/05/27 10:28:15;;;;;;;9.43;2.90;;;13.30;99.90;;;;;;5057255;28;20043;-81
2021/05/27 10:30:44;;;;;;;18.33;2.85;;;13.40;99.90;;;;;;5056600;28;20044;-80
2021/05/27 10:33:17;;;;;;;10.18;2.20;;;13.40;99.90;;;;;;5055338;28;20048;-80
2021/05/27 10:35:52;;;;;;;9.18;2.50;;;13.50;99.90;;;;;;5056202;28;20062;-80
2021/05/27 10:38:41;;;;;;;10.57;2.70;;;13.70;99.90;;;;;;5056563;28;20715;-80
2021/05/27 10:41:08;;;;;;;11.50;2.35;;;14.00;99.90;;;;;;5055979;28;20040;-80
2021/05/27 10:43:35;;;;;;;8.80;1.92;;;14.30;99.90;;;;;;5053691;28;20044;-81
2021/05/27 10:46:06;;;;;;;6.55;1.92;;;14.60;99.90;;;;;;5055524;28;20112;-81
2021/05/27 10:48:50;;;;;;;9.73;2.05;;;14.90;99.90;;;;;;5054197;28;20043;-80
2021/05/27 10:54:03;;;;;;;8.02;2.65;;;15.00;99.90;;;;;;5052797;28;20036;-79
2021/05/27 10:56:35;;;;;;;10.85;2.00;;;15.00;99.90;;;;;;5054841;28;20122;-79
2021/05/27 10:59:01;;;;;;;8.82;1.95;;;14.90;99.90;;;;;;5056188;28;20047;-80
2021/05/27 11:01:42;;;;;;;6.93;1.42;;;14.90;99.90;;;;;;5054306;28;20172;-79
2021/05/27 11:04:20;;;;;;;8.50;1.65;;;14.70;99.90;;;;;;5058216;28;20050;-79
2021/05/27 11:06:49;;;;;;;6.18;1.23;;;14.60;99.90;;;;;;5055697;28;20478;-79
2021/05/27 11:09:20;;;;;;;3.53;0.90;;;14.60;99.90;;;;;;5055701;28;20041;-79
2021/05/27 11:11:50;;;;;;;6.38;1.00;;;14.60;99.90;;;;;;5054503;28;20048;-79
2021/05/27 11:14:24;;;;;;;4.82;0.80;;;14.60;99.90;;;;;;5055768;28;20033;-79
2021/05/27 11:17:02;;;;;;;8.05;1.73;;;14.60;99.90;;;;;;5057091;28;20114;-79
2021/05/27 11:25:12;;;;;;;8.10;1.90;;;15.00;99.90;;;;;;5054864;28;20072;-80
2021/05/27 11:27:42;;;;;;;8.88;1.38;;;15.10;99.90;;;;;;5059200;28;20414;-81
2021/05/27 11:30:33;;;;;;;8.15;1.15;;;15.10;99.90;;;;;;5055242;28;20078;-80
2021/05/27 11:33:17;;;;;;;7.40;1.67;;;15.30;99.90;;;;;;5057339;28;20041;-81
2021/05/27 11:35:45;;;;;;;8.60;1.35;;;15.80;99.90;;;;;;5053546;28;20127;-81
2021/05/27 11:38:20;;;;;;;8.05;1.40;;;16.10;99.90;;;;;;5060259;28;21211;-80
2021/05/27 11:40:50;;;;;;;12.43;1.77;;;16.20;99.50;;;;;;5053408;28;20041;-76
2021/05/27 11:43:17;;;;;;;10.63;2.30;;;15.90;99.90;;;;;;5053465;28;20041;-77
2021/05/27 11:45:43;;;;;;;9.38;1.50;;;15.50;99.90;;;;;;5054043;28;20360;-77
2021/05/27 11:51:03;;;;;;;9.52;1.90;;;15.00;99.90;;;;;;5054633;28;20052;-78
2021/05/27 11:53:49;;;;;;;12.18;2.10;;;15.00;99.90;;;;;;5054280;28;20041;-78
2021/05/27 11:56:31;;;;;;;9.40;2.53;;;14.90;99.90;;;;;;5055068;28;20502;-78
2021/05/27 11:58:58;;;;;;;9.75;1.75;;;15.00;99.90;;;;;;5055722;28;20113;-83
2021/05/27 12:01:29;;;;;;;10.27;2.40;;;15.20;99.90;;;;;;5057722;28;20052;-80
2021/05/27 12:04:02;;;;;;;14.73;2.13;;;15.40;99.90;;;;;;5054100;28;20032;-80
2021/05/27 12:06:28;;;;;;;10.48;1.67;;;15.60;99.90;;;;;;5052618;28;20068;-80
2021/05/27 12:08:55;;;;;;;10.73;2.10;;;15.60;99.90;;;;;;5055821;28;20032;-80
2021/05/27 12:11:33;;;;;;;9.55;1.88;;;15.60;99.90;;;;;;5057940;28;20494;-80
2021/05/27 12:14:02;;;;;;;5.55;1.00;;;15.60;99.90;;;;;;5054564;28;20548;-80
2021/05/27 12:16:36;;;;;;;4.03;0.80;;;15.30;99.90;;;;;;5052892;28;20041;-82
2021/05/27 12:19:06;;;;;;;5.60;1.33;;;15.10;99.90;;;;;;5054576;28;20033;-78
2021/05/27 12:21:33;;;;;;;5.22;1.02;;;14.80;99.90;;;;;;5051164;28;21172;-79
2021/05/27 12:23:59;;;;;;;6.63;1.00;;;14.60;99.90;;;;;;5057390;28;20093;-78
2021/05/27 12:26:26;;;;;;;4.43;0.90;;;14.40;99.90;;;;;;5057095;28;20428;-78
2021/05/27 12:28:55;;;;;;;3.08;0.80;;;14.40;99.90;;;;;;5059840;28;20052;-79
2021/05/27 12:31:22;;;;;;;6.43;1.15;;;14.30;99.90;;;;;;5057999;28;20036;-78
2021/05/27 12:33:50;;;;;;;4.63;0.98;;;14.30;99.90;;;;;;5058258;28;20481;-78
2021/05/27 12:36:16;;;;;;;4.38;0.80;;;14.40;99.90;;;;;;5055846;28;20128;-79
2021/05/27 12:38:47;;;;;;;2.20;0.85;;;14.40;99.90;;;;;;5057016;28;20119;-79
2021/05/27 12:41:14;;;;;;;6.90;1.17;;;14.40;99.90;;;;;;5058461;28;20128;-80
2021/05/27 12:43:47;;;;;;;7.25;1.08;;;14.50;99.90;;;;;;5058355;28;20072;-80
2021/05/27 12:46:16;;;;;;;5.25;1.00;;;14.60;99.90;;;;;;5055613;28;20044;-80
2021/05/27 12:48:49;;;;;;;4.50;0.80;;;14.70;99.90;;;;;;5055470;28;20114;-80
2021/05/27 12:51:16;;;;;;;5.32;1.02;;;14.60;99.90;;;;;;5058327;28;20064;-80
2021/05/27 12:53:51;;;;;;;5.30;1.42;;;14.60;99.90;;;;;;5057863;28;20094;-80
2021/05/27 12:56:22;;;;;;;4.18;0.82;;;14.50;99.90;;;;;;5057868;28;20518;-79
2021/05/27 12:59:01;;;;;;;8.35;1.40;;;14.50;99.90;;;;;;5058576;28;20048;-80
2021/05/27 13:01:41;;;;;;;8.45;1.40;;;14.40;99.90;;;;;;5058067;28;20041;-80
2021/05/27 13:04:08;;;;;;;6.25;1.35;;;14.40;99.90;;;;;;5058956;28;20068;-79